sensor_id;sensor_type;location;lat;lon;timestamp;P1;durP1;ratioP1;P2;durP2;ratioP2
67757;SDS011;54562;47.620;18.786;2022-08-26T00:00:02;11.30;;;7.00;;
67757;SDS011;54562;47.620;18.786;2022-08-26T00:03:15;12.60;;;6.80;;
67757;SDS011;54562;47.620;18.786;2022-08-26T00:06:24;10.70;;;7.20;;
67757;SDS011;54562;47.620;18.786;2022-08-26T00:09:35;12.30;;;6.60;;
67757;SDS011;54562;47.620;18.786;2022-08-26T00:12:44;12.10;;;6.90;;
67757;SDS011;54562;47.620;18.786;2022-08-26T00:15:53;10.70;;;7.10;;
67757;SDS011;54562;47.620;18.786;2022-08-26T00:19:01;13.30;;;6.70;;
67757;SDS011;54562;47.620;18.786;2022-08-26T00:22:11;13.20;;;7.40;;
67757;SDS011;54562;47.620;18.786;2022-08-26T00:25:26;13.20;;;7.40;;
67757;SDS011;54562;47.620;18.786;2022-08-26T00:28:35;10.40;;;7.10;;
67757;SDS011;54562;47.620;18.786;2022-08-26T00:31:44;12.60;;;7.50;;
67757;SDS011;54562;47.620;18.786;2022-08-26T00:34:52;12.50;;;7.80;;
67757;SDS011;54562;47.620;18.786;2022-08-26T00:38:01;14.30;;;7.60;;
67757;SDS011;54562;47.620;18.786;2022-08-26T00:41:11;12.70;;;7.50;;
67757;SDS011;54562;47.620;18.786;2022-08-26T00:44:20;12.90;;;7.30;;
67757;SDS011;54562;47.620;18.786;2022-08-26T00:47:33;13.20;;;7.60;;
67757;SDS011;54562;47.620;18.786;2022-08-26T00:50:49;13.80;;;7.30;;
67757;SDS011;54562;47.620;18.786;2022-08-26T00:54:06;11.50;;;7.80;;
67757;SDS011;54562;47.620;18.786;2022-08-26T00:57:16;12.40;;;7.60;;
67757;SDS011;54562;47.620;18.786;2022-08-26T01:00:28;13.60;;;7.80;;
67757;SDS011;54562;47.620;18.786;2022-08-26T01:03:37;13.60;;;7.60;;
67757;SDS011;54562;47.620;18.786;2022-08-26T01:06:49;16.10;;;8.10;;
67757;SDS011;54562;47.620;18.786;2022-08-26T01:09:59;12.20;;;7.60;;
67757;SDS011;54562;47.620;18.786;2022-08-26T01:13:10;13.00;;;7.90;;
67757;SDS011;54562;47.620;18.786;2022-08-26T01:16:19;12.40;;;8.50;;
67757;SDS011;54562;47.620;18.786;2022-08-26T01:19:32;14.30;;;7.60;;
67757;SDS011;54562;47.620;18.786;2022-08-26T01:22:55;11.00;;;7.70;;
67757;SDS011;54562;47.620;18.786;2022-08-26T01:26:11;14.10;;;7.40;;
67757;SDS011;54562;47.620;18.786;2022-08-26T01:29:24;12.70;;;7.50;;
67757;SDS011;54562;47.620;18.786;2022-08-26T01:32:34;12.90;;;7.40;;
67757;SDS011;54562;47.620;18.786;2022-08-26T01:35:43;15.50;;;7.50;;
67757;SDS011;54562;47.620;18.786;2022-08-26T01:38:52;10.50;;;7.30;;
67757;SDS011;54562;47.620;18.786;2022-08-26T01:42:02;11.50;;;7.10;;
67757;SDS011;54562;47.620;18.786;2022-08-26T01:45:17;11.00;;;7.20;;
67757;SDS011;54562;47.620;18.786;2022-08-26T01:48:30;11.50;;;7.70;;
67757;SDS011;54562;47.620;18.786;2022-08-26T01:51:41;12.70;;;7.60;;
67757;SDS011;54562;47.620;18.786;2022-08-26T01:54:51;12.30;;;7.90;;
67757;SDS011;54562;47.620;18.786;2022-08-26T01:58:03;15.60;;;7.70;;
67757;SDS011;54562;47.620;18.786;2022-08-26T02:01:15;12.90;;;8.00;;
67757;SDS011;54562;47.620;18.786;2022-08-26T02:04:28;13.50;;;7.60;;
67757;SDS011;54562;47.620;18.786;2022-08-26T02:07:39;11.30;;;7.70;;
67757;SDS011;54562;47.620;18.786;2022-08-26T02:14:02;13.70;;;7.00;;
67757;SDS011;54562;47.620;18.786;2022-08-26T02:17:14;14.00;;;7.70;;
67757;SDS011;54562;47.620;18.786;2022-08-26T02:20:24;13.10;;;7.10;;
67757;SDS011;54562;47.620;18.786;2022-08-26T02:23:34;12.80;;;8.00;;
67757;SDS011;54562;47.620;18.786;2022-08-26T02:26:43;11.40;;;7.40;;
67757;SDS011;54562;47.620;18.786;2022-08-26T02:29:54;13.20;;;7.80;;
67757;SDS011;54562;47.620;18.786;2022-08-26T02:33:06;12.50;;;7.80;;
67757;SDS011;54562;47.620;18.786;2022-08-26T02:36:22;13.70;;;8.10;;
67757;SDS011;54562;47.620;18.786;2022-08-26T02:39:33;13.30;;;7.70;;
67757;SDS011;54562;47.620;18.786;2022-08-26T02:42:43;12.40;;;7.30;;
67757;SDS011;54562;47.620;18.786;2022-08-26T02:45:51;12.40;;;7.60;;
67757;SDS011;54562;47.620;18.786;2022-08-26T02:48:59;13.80;;;7.30;;
67757;SDS011;54562;47.620;18.786;2022-08-26T02:52:07;14.50;;;7.60;;
67757;SDS011;54562;47.620;18.786;2022-08-26T02:55:16;13.20;;;8.00;;
67757;SDS011;54562;47.620;18.786;2022-08-26T06:57:21;12.90;;;4.90;;
67757;SDS011;54562;47.620;18.786;2022-08-26T07:00:29;11.20;;;5.20;;
67757;SDS011;54562;47.620;18.786;2022-08-26T07:03:40;12.00;;;5.00;;
67757;SDS011;54562;47.620;18.786;2022-08-26T07:06:51;13.70;;;4.80;;
67757;SDS011;54562;47.620;18.786;2022-08-26T07:09:59;12.20;;;4.70;;
67757;SDS011;54562;47.620;18.786;2022-08-26T07:13:08;11.10;;;4.70;;
67757;SDS011;54562;47.620;18.786;2022-08-26T07:16:16;15.30;;;4.90;;
67757;SDS011;54562;47.620;18.786;2022-08-26T07:19:27;15.20;;;4.50;;
67757;SDS011;54562;47.620;18.786;2022-08-26T07:22:36;15.60;;;4.90;;
67757;SDS011;54562;47.620;18.786;2022-08-26T07:25:46;15.20;;;4.80;;
67757;SDS011;54562;47.620;18.786;2022-08-26T07:28:55;16.20;;;4.50;;
67757;SDS011;54562;47.620;18.786;2022-08-26T07:32:05;13.80;;;4.50;;
67757;SDS011;54562;47.620;18.786;2022-08-26T07:35:14;14.80;;;4.50;;
67757;SDS011;54562;47.620;18.786;2022-08-26T07:38:22;15.00;;;4.50;;
67757;SDS011;54562;47.620;18.786;2022-08-26T07:41:31;10.20;;;4.10;;
67757;SDS011;54562;47.620;18.786;2022-08-26T07:44:42;15.60;;;4.90;;
67757;SDS011;54562;47.620;18.786;2022-08-26T07:47:50;15.00;;;4.30;;
67757;SDS011;54562;47.620;18.786;2022-08-26T07:50:59;13.80;;;4.00;;
67757;SDS011;54562;47.620;18.786;2022-08-26T07:54:08;13.30;;;4.20;;
67757;SDS011;54562;47.620;18.786;2022-08-26T07:57:16;15.40;;;4.40;;
67757;SDS011;54562;47.620;18.786;2022-08-26T08:00:25;13.80;;;4.60;;
67757;SDS011;54562;47.620;18.786;2022-08-26T08:03:36;14.70;;;4.60;;
67757;SDS011;54562;47.620;18.786;2022-08-26T08:06:46;13.20;;;4.20;;
67757;SDS011;54562;47.620;18.786;2022-08-26T08:09:54;14.10;;;4.20;;
67757;SDS011;54562;47.620;18.786;2022-08-26T08:13:02;14.40;;;4.20;;
67757;SDS011;54562;47.620;18.786;2022-08-26T08:16:13;12.40;;;4.10;;
67757;SDS011;54562;47.620;18.786;2022-08-26T08:19:22;12.30;;;4.20;;
67757;SDS011;54562;47.620;18.786;2022-08-26T08:22:43;15.00;;;4.40;;
67757;SDS011;54562;47.620;18.786;2022-08-26T08:25:56;13.70;;;4.10;;
67757;SDS011;54562;47.620;18.786;2022-08-26T08:29:07;11.50;;;4.30;;
67757;SDS011;54562;47.620;18.786;2022-08-26T08:32:16;10.10;;;4.60;;
67757;SDS011;54562;47.620;18.786;2022-08-26T08:35:24;11.60;;;4.50;;
67757;SDS011;54562;47.620;18.786;2022-08-26T08:38:33;11.40;;;4.20;;
67757;SDS011;54562;47.620;18.786;2022-08-26T08:41:50;15.20;;;4.40;;
67757;SDS011;54562;47.620;18.786;2022-08-26T08:45:14;15.30;;;4.20;;
67757;SDS011;54562;47.620;18.786;2022-08-26T08:48:30;10.70;;;4.40;;
67757;SDS011;54562;47.620;18.786;2022-08-26T08:51:44;12.10;;;4.20;;
67757;SDS011;54562;47.620;18.786;2022-08-26T08:54:56;11.40;;;4.10;;
67757;SDS011;54562;47.620;18.786;2022-08-26T08:58:11;12.30;;;4.10;;
67757;SDS011;54562;47.620;18.786;2022-08-26T09:01:43;15.10;;;4.30;;
67757;SDS011;54562;47.620;18.786;2022-08-26T09:05:15;14.70;;;4.30;;
67757;SDS011;54562;47.620;18.786;2022-08-26T09:08:30;13.90;;;4.50;;
67757;SDS011;54562;47.620;18.786;2022-08-26T09:11:40;14.60;;;4.30;;
67757;SDS011;54562;47.620;18.786;2022-08-26T09:14:50;15.50;;;4.20;;
67757;SDS011;54562;47.620;18.786;2022-08-26T09:18:10;10.50;;;4.00;;
67757;SDS011;54562;47.620;18.786;2022-08-26T09:21:29;14.10;;;4.40;;
67757;SDS011;54562;47.620;18.786;2022-08-26T09:24:39;11.00;;;4.30;;
67757;SDS011;54562;47.620;18.786;2022-08-26T09:27:53;12.10;;;4.20;;
67757;SDS011;54562;47.620;18.786;2022-08-26T09:34:21;11.80;;;4.40;;
67757;SDS011;54562;47.620;18.786;2022-08-26T09:37:40;11.70;;;4.30;;
67757;SDS011;54562;47.620;18.786;2022-08-26T09:40:58;11.90;;;3.70;;
67757;SDS011;54562;47.620;18.786;2022-08-26T09:44:17;12.30;;;4.00;;
67757;SDS011;54562;47.620;18.786;2022-08-26T09:47:30;14.10;;;4.30;;
67757;SDS011;54562;47.620;18.786;2022-08-26T09:50:54;15.90;;;4.20;;
67757;SDS011;54562;47.620;18.786;2022-08-26T09:54:05;12.30;;;4.30;;
67757;SDS011;54562;47.620;18.786;2022-08-26T09:57:22;13.90;;;3.80;;
67757;SDS011;54562;47.620;18.786;2022-08-26T10:00:35;9.40;;;3.80;;
67757;SDS011;54562;47.620;18.786;2022-08-26T10:03:46;14.20;;;3.70;;
67757;SDS011;54562;47.620;18.786;2022-08-26T10:06:58;16.60;;;4.30;;
67757;SDS011;54562;47.620;18.786;2022-08-26T10:10:13;14.70;;;4.00;;
67757;SDS011;54562;47.620;18.786;2022-08-26T10:13:31;16.90;;;4.00;;
67757;SDS011;54562;47.620;18.786;2022-08-26T10:16:46;16.10;;;4.20;;
67757;SDS011;54562;47.620;18.786;2022-08-26T10:20:00;14.80;;;4.50;;
67757;SDS011;54562;47.620;18.786;2022-08-26T10:23:30;18.90;;;4.10;;
67757;SDS011;54562;47.620;18.786;2022-08-26T10:26:54;13.60;;;3.80;;
67757;SDS011;54562;47.620;18.786;2022-08-26T10:30:13;13.50;;;3.70;;
67757;SDS011;54562;47.620;18.786;2022-08-26T10:33:23;14.20;;;4.00;;
67757;SDS011;54562;47.620;18.786;2022-08-26T10:36:39;15.50;;;3.80;;
67757;SDS011;54562;47.620;18.786;2022-08-26T10:40:18;14.20;;;3.50;;
67757;SDS011;54562;47.620;18.786;2022-08-26T10:43:34;14.60;;;3.70;;
67757;SDS011;54562;47.620;18.786;2022-08-26T10:46:52;15.30;;;4.50;;
67757;SDS011;54562;47.620;18.786;2022-08-26T10:50:05;18.30;;;4.00;;
67757;SDS011;54562;47.620;18.786;2022-08-26T10:53:19;11.40;;;3.70;;
67757;SDS011;54562;47.620;18.786;2022-08-26T10:56:44;10.70;;;3.30;;
67757;SDS011;54562;47.620;18.786;2022-08-26T11:00:03;12.00;;;3.70;;
67757;SDS011;54562;47.620;18.786;2022-08-26T11:03:42;11.20;;;3.40;;
67757;SDS011;54562;47.620;18.786;2022-08-26T11:10:58;13.20;;;3.90;;
67757;SDS011;54562;47.620;18.786;2022-08-26T11:14:07;12.30;;;3.60;;
67757;SDS011;54562;47.620;18.786;2022-08-26T11:17:57;13.00;;;3.70;;
67757;SDS011;54562;47.620;18.786;2022-08-26T11:25:11;12.50;;;3.80;;
67757;SDS011;54562;47.620;18.786;2022-08-26T11:28:35;12.50;;;3.60;;
67757;SDS011;54562;47.620;18.786;2022-08-26T11:31:55;14.90;;;3.50;;
67757;SDS011;54562;47.620;18.786;2022-08-26T11:35:06;9.90;;;3.10;;
67757;SDS011;54562;47.620;18.786;2022-08-26T11:38:24;12.10;;;3.30;;
67757;SDS011;54562;47.620;18.786;2022-08-26T11:44:42;10.40;;;3.60;;
67757;SDS011;54562;47.620;18.786;2022-08-26T11:47:54;16.80;;;3.50;;
67757;SDS011;54562;47.620;18.786;2022-08-26T11:51:04;11.90;;;3.30;;
67757;SDS011;54562;47.620;18.786;2022-08-26T11:54:15;11.30;;;3.30;;
67757;SDS011;54562;47.620;18.786;2022-08-26T11:57:44;12.00;;;3.50;;
67757;SDS011;54562;47.620;18.786;2022-08-26T12:00:57;14.30;;;3.70;;
67757;SDS011;54562;47.620;18.786;2022-08-26T12:04:09;13.70;;;3.30;;
67757;SDS011;54562;47.620;18.786;2022-08-26T12:07:28;11.80;;;3.40;;
67757;SDS011;54562;47.620;18.786;2022-08-26T12:10:38;10.20;;;3.10;;
67757;SDS011;54562;47.620;18.786;2022-08-26T12:13:54;9.30;;;3.10;;
67757;SDS011;54562;47.620;18.786;2022-08-26T12:17:11;12.10;;;3.50;;
67757;SDS011;54562;47.620;18.786;2022-08-26T12:20:31;13.90;;;3.30;;
67757;SDS011;54562;47.620;18.786;2022-08-26T12:23:53;9.60;;;3.20;;
67757;SDS011;54562;47.620;18.786;2022-08-26T12:27:16;13.90;;;3.10;;
67757;SDS011;54562;47.620;18.786;2022-08-26T12:30:27;7.90;;;3.20;;
67757;SDS011;54562;47.620;18.786;2022-08-26T12:36:45;9.20;;;3.20;;
67757;SDS011;54562;47.620;18.786;2022-08-26T12:39:55;12.40;;;3.30;;
67757;SDS011;54562;47.620;18.786;2022-08-26T12:43:42;9.60;;;3.20;;
67757;SDS011;54562;47.620;18.786;2022-08-26T12:46:51;12.40;;;3.30;;
67757;SDS011;54562;47.620;18.786;2022-08-26T12:50:08;9.40;;;3.30;;
67757;SDS011;54562;47.620;18.786;2022-08-26T12:53:24;13.40;;;3.70;;
67757;SDS011;54562;47.620;18.786;2022-08-26T12:56:37;11.90;;;3.60;;
67757;SDS011;54562;47.620;18.786;2022-08-26T12:59:45;10.30;;;3.00;;
67757;SDS011;54562;47.620;18.786;2022-08-26T13:02:53;10.70;;;3.20;;
67757;SDS011;54562;47.620;18.786;2022-08-26T13:06:26;10.30;;;3.20;;
67757;SDS011;54562;47.620;18.786;2022-08-26T13:09:36;13.20;;;3.40;;
67757;SDS011;54562;47.620;18.786;2022-08-26T13:12:46;11.70;;;3.50;;
67757;SDS011;54562;47.620;18.786;2022-08-26T13:15:54;10.50;;;3.70;;
67757;SDS011;54562;47.620;18.786;2022-08-26T13:19:05;11.20;;;3.30;;
67757;SDS011;54562;47.620;18.786;2022-08-26T13:22:22;13.80;;;3.50;;
67757;SDS011;54562;47.620;18.786;2022-08-26T13:25:30;11.20;;;3.90;;
67757;SDS011;54562;47.620;18.786;2022-08-26T13:28:39;14.00;;;4.00;;
67757;SDS011;54562;47.620;18.786;2022-08-26T13:34:54;9.10;;;3.50;;
67757;SDS011;54562;47.620;18.786;2022-08-26T13:38:09;13.60;;;3.80;;
67757;SDS011;54562;47.620;18.786;2022-08-26T13:41:37;10.20;;;3.60;;
67757;SDS011;54562;47.620;18.786;2022-08-26T13:44:46;15.40;;;4.10;;
67757;SDS011;54562;47.620;18.786;2022-08-26T13:47:57;13.80;;;3.80;;
67757;SDS011;54562;47.620;18.786;2022-08-26T13:51:06;12.20;;;3.80;;
67757;SDS011;54562;47.620;18.786;2022-08-26T13:54:14;11.00;;;3.30;;
67757;SDS011;54562;47.620;18.786;2022-08-26T13:57:22;9.90;;;3.50;;
67757;SDS011;54562;47.620;18.786;2022-08-26T14:00:32;15.70;;;4.20;;
67757;SDS011;54562;47.620;18.786;2022-08-26T14:03:42;14.40;;;3.90;;
67757;SDS011;54562;47.620;18.786;2022-08-26T14:06:50;11.30;;;3.40;;
67757;SDS011;54562;47.620;18.786;2022-08-26T14:13:05;12.60;;;3.30;;
67757;SDS011;54562;47.620;18.786;2022-08-26T14:16:18;12.40;;;3.40;;
67757;SDS011;54562;47.620;18.786;2022-08-26T14:19:30;11.30;;;3.60;;
67757;SDS011;54562;47.620;18.786;2022-08-26T14:22:40;14.30;;;3.60;;
67757;SDS011;54562;47.620;18.786;2022-08-26T14:26:10;13.50;;;3.80;;
67757;SDS011;54562;47.620;18.786;2022-08-26T14:29:33;17.40;;;3.70;;
67757;SDS011;54562;47.620;18.786;2022-08-26T14:32:45;16.80;;;4.00;;
67757;SDS011;54562;47.620;18.786;2022-08-26T14:35:56;15.10;;;3.60;;
67757;SDS011;54562;47.620;18.786;2022-08-26T14:39:22;11.80;;;3.70;;
67757;SDS011;54562;47.620;18.786;2022-08-26T14:42:31;11.70;;;3.40;;
67757;SDS011;54562;47.620;18.786;2022-08-26T14:45:43;12.30;;;3.40;;
67757;SDS011;54562;47.620;18.786;2022-08-26T14:48:51;15.20;;;4.20;;
67757;SDS011;54562;47.620;18.786;2022-08-26T14:56:18;15.40;;;3.90;;
67757;SDS011;54562;47.620;18.786;2022-08-26T15:30:37;11.00;;;3.70;;
67757;SDS011;54562;47.620;18.786;2022-08-26T15:33:45;11.10;;;3.30;;
67757;SDS011;54562;47.620;18.786;2022-08-26T15:36:56;15.20;;;3.70;;
67757;SDS011;54562;47.620;18.786;2022-08-26T15:40:05;15.20;;;3.80;;
67757;SDS011;54562;47.620;18.786;2022-08-26T15:43:14;12.90;;;3.50;;
67757;SDS011;54562;47.620;18.786;2022-08-26T15:46:33;12.10;;;3.50;;
67757;SDS011;54562;47.620;18.786;2022-08-26T15:49:42;10.00;;;3.40;;
67757;SDS011;54562;47.620;18.786;2022-08-26T15:52:50;13.40;;;3.90;;
67757;SDS011;54562;47.620;18.786;2022-08-26T15:55:59;13.90;;;3.90;;
67757;SDS011;54562;47.620;18.786;2022-08-26T15:59:09;10.20;;;3.70;;
67757;SDS011;54562;47.620;18.786;2022-08-26T16:02:17;14.50;;;4.10;;
67757;SDS011;54562;47.620;18.786;2022-08-26T16:05:25;11.10;;;3.60;;
67757;SDS011;54562;47.620;18.786;2022-08-26T16:08:33;11.70;;;3.60;;
67757;SDS011;54562;47.620;18.786;2022-08-26T16:11:41;15.60;;;3.90;;
67757;SDS011;54562;47.620;18.786;2022-08-26T16:14:50;13.00;;;4.20;;
67757;SDS011;54562;47.620;18.786;2022-08-26T16:18:00;13.30;;;3.80;;
67757;SDS011;54562;47.620;18.786;2022-08-26T16:21:09;12.40;;;4.00;;
67757;SDS011;54562;47.620;18.786;2022-08-26T16:24:22;13.10;;;3.90;;
67757;SDS011;54562;47.620;18.786;2022-08-26T16:27:34;10.20;;;4.00;;
67757;SDS011;54562;47.620;18.786;2022-08-26T16:30:43;12.50;;;3.70;;
67757;SDS011;54562;47.620;18.786;2022-08-26T16:33:51;10.00;;;3.60;;
67757;SDS011;54562;47.620;18.786;2022-08-26T16:37:03;13.00;;;3.70;;
67757;SDS011;54562;47.620;18.786;2022-08-26T16:40:12;12.10;;;4.10;;
67757;SDS011;54562;47.620;18.786;2022-08-26T16:43:20;15.00;;;3.90;;
67757;SDS011;54562;47.620;18.786;2022-08-26T16:46:28;13.60;;;4.00;;
67757;SDS011;54562;47.620;18.786;2022-08-26T16:49:37;17.60;;;4.00;;
67757;SDS011;54562;47.620;18.786;2022-08-26T18:57:40;17.70;;;4.50;;
67757;SDS011;54562;47.620;18.786;2022-08-26T19:00:48;12.10;;;3.90;;
67757;SDS011;54562;47.620;18.786;2022-08-26T19:03:58;13.70;;;4.50;;
67757;SDS011;54562;47.620;18.786;2022-08-26T19:07:09;13.40;;;3.90;;
67757;SDS011;54562;47.620;18.786;2022-08-26T19:10:18;15.40;;;4.00;;
67757;SDS011;54562;47.620;18.786;2022-08-26T19:13:27;17.80;;;4.20;;
67757;SDS011;54562;47.620;18.786;2022-08-26T19:16:36;15.30;;;3.90;;
67757;SDS011;54562;47.620;18.786;2022-08-26T19:19:44;13.20;;;3.70;;
67757;SDS011;54562;47.620;18.786;2022-08-26T19:22:53;12.60;;;3.80;;
67757;SDS011;54562;47.620;18.786;2022-08-26T19:26:14;20.10;;;4.30;;
67757;SDS011;54562;47.620;18.786;2022-08-26T19:29:24;11.80;;;3.90;;
67757;SDS011;54562;47.620;18.786;2022-08-26T19:32:35;13.70;;;3.90;;
67757;SDS011;54562;47.620;18.786;2022-08-26T19:35:45;14.70;;;3.50;;
67757;SDS011;54562;47.620;18.786;2022-08-26T19:38:55;13.90;;;3.70;;
67757;SDS011;54562;47.620;18.786;2022-08-26T19:42:05;15.30;;;4.00;;
67757;SDS011;54562;47.620;18.786;2022-08-26T19:45:14;11.40;;;3.70;;
67757;SDS011;54562;47.620;18.786;2022-08-26T19:48:29;11.80;;;3.80;;
67757;SDS011;54562;47.620;18.786;2022-08-26T19:51:38;15.80;;;3.70;;
67757;SDS011;54562;47.620;18.786;2022-08-26T19:54:48;13.90;;;3.70;;
67757;SDS011;54562;47.620;18.786;2022-08-26T19:57:56;11.70;;;3.50;;
67757;SDS011;54562;47.620;18.786;2022-08-26T20:01:05;10.70;;;3.80;;
67757;SDS011;54562;47.620;18.786;2022-08-26T20:07:21;11.60;;;3.60;;
67757;SDS011;54562;47.620;18.786;2022-08-26T20:13:42;12.80;;;3.60;;
67757;SDS011;54562;47.620;18.786;2022-08-26T20:16:51;8.60;;;3.30;;
67757;SDS011;54562;47.620;18.786;2022-08-26T20:20:00;10.40;;;3.60;;
67757;SDS011;54562;47.620;18.786;2022-08-26T20:23:37;12.80;;;3.60;;
67757;SDS011;54562;47.620;18.786;2022-08-26T20:26:48;12.70;;;4.00;;
67757;SDS011;54562;47.620;18.786;2022-08-26T20:29:56;13.70;;;3.70;;
67757;SDS011;54562;47.620;18.786;2022-08-26T20:33:05;10.20;;;3.50;;
67757;SDS011;54562;47.620;18.786;2022-08-26T20:36:14;9.70;;;3.40;;
67757;SDS011;54562;47.620;18.786;2022-08-26T20:39:22;13.00;;;3.70;;
67757;SDS011;54562;47.620;18.786;2022-08-26T20:42:33;9.90;;;3.60;;
67757;SDS011;54562;47.620;18.786;2022-08-26T20:45:41;11.20;;;3.40;;
67757;SDS011;54562;47.620;18.786;2022-08-26T20:48:50;10.30;;;3.20;;
67757;SDS011;54562;47.620;18.786;2022-08-26T20:52:02;11.70;;;3.60;;
67757;SDS011;54562;47.620;18.786;2022-08-26T20:58:17;11.50;;;3.40;;
67757;SDS011;54562;47.620;18.786;2022-08-26T21:01:27;7.70;;;3.30;;
67757;SDS011;54562;47.620;18.786;2022-08-26T21:04:38;10.60;;;3.30;;
67757;SDS011;54562;47.620;18.786;2022-08-26T21:07:47;15.50;;;3.60;;
67757;SDS011;54562;47.620;18.786;2022-08-26T21:14:03;12.10;;;3.40;;
67757;SDS011;54562;47.620;18.786;2022-08-26T21:17:20;8.60;;;3.40;;
67757;SDS011;54562;47.620;18.786;2022-08-26T21:20:28;14.00;;;3.80;;
67757;SDS011;54562;47.620;18.786;2022-08-26T21:23:37;11.30;;;3.50;;
67757;SDS011;54562;47.620;18.786;2022-08-26T21:26:46;10.90;;;3.50;;
67757;SDS011;54562;47.620;18.786;2022-08-26T21:29:54;10.60;;;3.60;;
67757;SDS011;54562;47.620;18.786;2022-08-26T21:33:02;11.70;;;3.50;;
67757;SDS011;54562;47.620;18.786;2022-08-26T21:36:12;14.80;;;3.70;;
67757;SDS011;54562;47.620;18.786;2022-08-26T21:39:20;9.30;;;3.50;;
67757;SDS011;54562;47.620;18.786;2022-08-26T21:42:31;12.70;;;3.60;;
67757;SDS011;54562;47.620;18.786;2022-08-26T21:45:41;12.10;;;3.70;;
67757;SDS011;54562;47.620;18.786;2022-08-26T21:48:52;15.60;;;4.00;;
67757;SDS011;54562;47.620;18.786;2022-08-26T21:52:03;11.40;;;4.00;;
67757;SDS011;54562;47.620;18.786;2022-08-26T21:55:12;11.60;;;3.60;;
67757;SDS011;54562;47.620;18.786;2022-08-26T21:58:20;14.10;;;4.00;;
67757;SDS011;54562;47.620;18.786;2022-08-26T22:01:30;11.60;;;3.80;;
67757;SDS011;54562;47.620;18.786;2022-08-26T22:04:38;11.10;;;3.90;;
67757;SDS011;54562;47.620;18.786;2022-08-26T22:07:53;8.30;;;3.80;;
67757;SDS011;54562;47.620;18.786;2022-08-26T22:11:02;9.00;;;3.50;;
67757;SDS011;54562;47.620;18.786;2022-08-26T22:14:11;9.80;;;4.20;;
67757;SDS011;54562;47.620;18.786;2022-08-26T22:17:18;10.50;;;3.90;;
67757;SDS011;54562;47.620;18.786;2022-08-26T22:20:26;12.30;;;3.90;;
67757;SDS011;54562;47.620;18.786;2022-08-26T22:23:36;10.80;;;4.00;;
67757;SDS011;54562;47.620;18.786;2022-08-26T22:26:45;13.50;;;4.00;;
67757;SDS011;54562;47.620;18.786;2022-08-26T22:33:01;10.60;;;4.00;;
67757;SDS011;54562;47.620;18.786;2022-08-26T22:36:15;11.60;;;3.90;;
67757;SDS011;54562;47.620;18.786;2022-08-26T22:39:25;9.80;;;3.60;;
67757;SDS011;54562;47.620;18.786;2022-08-26T22:42:33;10.70;;;3.90;;
67757;SDS011;54562;47.620;18.786;2022-08-26T22:45:44;10.40;;;4.10;;
67757;SDS011;54562;47.620;18.786;2022-08-26T22:48:54;10.00;;;3.70;;
67757;SDS011;54562;47.620;18.786;2022-08-26T22:52:02;14.10;;;4.00;;
67757;SDS011;54562;47.620;18.786;2022-08-26T22:55:11;12.00;;;4.00;;
67757;SDS011;54562;47.620;18.786;2022-08-26T22:58:20;11.20;;;3.90;;
67757;SDS011;54562;47.620;18.786;2022-08-26T23:01:37;11.40;;;3.90;;
67757;SDS011;54562;47.620;18.786;2022-08-26T23:04:46;9.50;;;3.80;;
67757;SDS011;54562;47.620;18.786;2022-08-26T23:07:55;10.50;;;3.60;;
67757;SDS011;54562;47.620;18.786;2022-08-26T23:11:07;11.40;;;3.50;;
67757;SDS011;54562;47.620;18.786;2022-08-26T23:14:17;8.00;;;3.50;;
67757;SDS011;54562;47.620;18.786;2022-08-26T23:17:25;8.50;;;3.40;;
67757;SDS011;54562;47.620;18.786;2022-08-26T23:20:33;7.80;;;3.90;;
67757;SDS011;54562;47.620;18.786;2022-08-26T23:23:42;9.40;;;3.60;;
67757;SDS011;54562;47.620;18.786;2022-08-26T23:26:50;10.40;;;4.30;;
67757;SDS011;54562;47.620;18.786;2022-08-26T23:29:58;9.50;;;3.50;;
67757;SDS011;54562;47.620;18.786;2022-08-26T23:33:06;9.60;;;4.20;;
67757;SDS011;54562;47.620;18.786;2022-08-26T23:36:14;13.10;;;3.50;;
67757;SDS011;54562;47.620;18.786;2022-08-26T23:39:27;9.00;;;3.80;;
67757;SDS011;54562;47.620;18.786;2022-08-26T23:42:36;10.10;;;3.70;;
67757;SDS011;54562;47.620;18.786;2022-08-26T23:45:44;12.20;;;3.60;;
67757;SDS011;54562;47.620;18.786;2022-08-26T23:48:54;9.00;;;3.70;;
67757;SDS011;54562;47.620;18.786;2022-08-26T23:52:04;8.60;;;3.70;;
67757;SDS011;54562;47.620;18.786;2022-08-26T23:55:33;10.30;;;3.80;;
67757;SDS011;54562;47.620;18.786;2022-08-26T23:58:43;11.60;;;3.50;;
